Terminal Aerodrome Forecast
Issued by NWS

Home | Current Version | Previous Version | Text Only | Print | Product List | Glossary On
Versions: 1 2 3 4 5 6 7 8 9 10 11 12 13 14 15 16
000
FTUS42 KFFC 230536
TAFRYY
TAF
KRYY 230536Z 2306/2406 25003KT P6SM FEW250
     FM231400 30005KT P6SM SCT035 SCT120
     FM231600 31007KT P6SM VCSH BKN045 PROB30 2317/2321 3SM TSRA
      BKN035CB
     FM232300 33005KT P6SM SCT045 SCT120=

USA.gov is the U.S. government's official web portal to all federal, state and local government web resources and services.